createdAt,value
2023-02-04T00:00:25.214Z,34.38
2023-02-04T00:02:52.933Z,33.25
2023-02-04T00:05:21.905Z,38.00
2023-02-04T00:07:49.562Z,38.55
2023-02-04T00:10:17.422Z,32.67
2023-02-04T00:12:46.481Z,27.60
2023-02-04T00:15:14.129Z,29.38
2023-02-04T00:17:41.796Z,49.78
2023-02-04T00:20:10.421Z,47.88
2023-02-04T00:22:38.152Z,45.70
2023-02-04T00:25:06.421Z,41.85
2023-02-04T00:27:34.164Z,29.90
2023-02-04T00:33:17.461Z,36.25
2023-02-04T00:35:45.149Z,48.80
2023-02-04T00:38:12.878Z,35.08
2023-02-04T00:40:40.600Z,35.20
2023-02-04T00:43:08.589Z,40.35
2023-02-04T00:45:36.408Z,35.92
2023-02-04T00:48:04.137Z,41.28
2023-02-04T00:50:34.982Z,41.87
2023-02-04T00:53:02.952Z,33.83
2023-02-04T00:55:30.655Z,41.15
2023-02-04T00:57:58.285Z,36.22
2023-02-04T01:00:26.336Z,46.45
2023-02-04T01:02:54.063Z,30.05
2023-02-04T01:05:21.723Z,38.00
2023-02-04T01:07:50.785Z,33.85
2023-02-04T01:10:18.612Z,48.03
2023-02-04T01:12:46.285Z,59.58
2023-02-04T01:15:14.107Z,37.08
2023-02-04T01:17:42.495Z,34.60
2023-02-04T01:20:11.208Z,36.08
2023-02-04T01:22:38.859Z,38.75
2023-02-04T01:25:09.008Z,26.35
2023-02-04T01:27:36.674Z,40.45
2023-02-04T01:30:04.737Z,51.65
2023-02-04T01:32:32.390Z,43.33
2023-02-04T01:35:00.035Z,35.80
2023-02-04T01:37:27.696Z,39.20
2023-02-04T01:39:55.354Z,37.93
2023-02-04T01:42:24.492Z,37.50
2023-02-04T01:44:52.484Z,37.45
2023-02-04T01:47:20.755Z,43.17
2023-02-04T01:49:52.673Z,35.83
2023-02-04T01:52:20.842Z,37.45
2023-02-04T01:54:48.490Z,41.47
2023-02-04T01:57:17.754Z,35.85
2023-02-04T01:59:48.405Z,38.67
2023-02-04T02:02:44.610Z,30.73
2023-02-04T02:05:14.045Z,36.78
2023-02-04T02:07:41.900Z,42.88
2023-02-04T02:10:11.825Z,36.33
2023-02-04T02:12:39.783Z,37.72
2023-02-04T02:15:10.028Z,43.78
2023-02-04T02:17:37.834Z,44.53
2023-02-04T02:20:08.015Z,38.42
2023-02-04T02:22:41.246Z,32.67
2023-02-04T02:25:12.852Z,45.40
2023-02-04T02:27:40.694Z,43.95
2023-02-04T02:30:10.990Z,28.95
2023-02-04T02:32:39.280Z,33.10
2023-02-04T02:35:08.039Z,32.55
2023-02-04T02:37:35.740Z,36.60
2023-02-04T02:40:03.999Z,42.67
2023-02-04T02:42:33.262Z,41.10
2023-02-04T02:45:18.160Z,43.95
2023-02-04T02:47:45.801Z,39.45
2023-02-04T02:50:18.046Z,43.92
2023-02-04T02:52:45.698Z,47.80
2023-02-04T02:55:16.701Z,32.75
2023-02-04T02:57:46.593Z,49.35
2023-02-04T03:00:18.904Z,50.55
2023-02-04T03:02:54.924Z,39.25
2023-02-04T03:05:22.808Z,42.70
2023-02-04T03:07:50.572Z,51.03
2023-02-04T03:10:18.654Z,31.37
2023-02-04T03:12:48.573Z,49.67
2023-02-04T03:15:16.427Z,42.80
2023-02-04T03:17:44.664Z,46.88
2023-02-04T03:20:14.498Z,41.55
2023-02-04T03:22:42.184Z,47.60
2023-02-04T03:25:09.886Z,42.15
2023-02-04T03:27:37.526Z,42.25
2023-02-04T03:30:08.756Z,43.92
2023-02-04T03:32:36.441Z,38.20
2023-02-04T03:35:04.312Z,45.90
2023-02-04T03:37:32.008Z,41.35
2023-02-04T03:39:59.685Z,33.00
2023-02-04T03:42:27.460Z,45.53
2023-02-04T03:44:55.131Z,35.47
2023-02-04T03:47:24.207Z,33.47
2023-02-04T03:49:51.849Z,39.03
2023-02-04T03:52:20.362Z,41.70
2023-02-04T03:54:48.262Z,45.13
2023-02-04T03:57:16.109Z,34.30
2023-02-04T03:59:44.024Z,42.58
2023-02-04T04:02:11.659Z,27.50
2023-02-04T04:04:40.718Z,40.60
2023-02-04T04:07:08.373Z,38.92
2023-02-04T04:09:36.008Z,36.60
2023-02-04T04:12:04.554Z,49.50
2023-02-04T04:14:32.206Z,40.97
2023-02-04T04:16:59.881Z,42.03
2023-02-04T04:19:27.550Z,38.72
2023-02-04T04:21:56.625Z,33.50
2023-02-04T04:24:24.261Z,44.25
2023-02-04T04:26:51.915Z,34.28
2023-02-04T04:29:19.636Z,42.03
2023-02-04T04:31:47.343Z,36.72
2023-02-04T04:34:15.061Z,38.65
2023-02-04T04:36:42.819Z,33.83
2023-02-04T04:39:11.909Z,39.45
2023-02-04T04:41:39.649Z,35.72
2023-02-04T04:44:07.771Z,40.05
2023-02-04T04:46:35.554Z,35.38
2023-02-04T04:49:03.318Z,42.25
2023-02-04T04:51:32.409Z,33.60
2023-02-04T04:54:00.178Z,38.90
2023-02-04T04:56:29.254Z,35.35
2023-02-04T04:58:56.919Z,38.15
2023-02-04T05:01:24.742Z,38.45
2023-02-04T05:03:52.436Z,43.33
2023-02-04T05:06:25.280Z,46.38
2023-02-04T05:08:53.256Z,40.22
2023-02-04T05:11:20.975Z,48.92
2023-02-04T05:13:50.279Z,44.03
2023-02-04T05:16:18.334Z,46.92
2023-02-04T05:18:46.144Z,41.47
2023-02-04T05:21:13.848Z,37.78
2023-02-04T05:23:41.507Z,42.22
2023-02-04T05:26:09.290Z,39.38
2023-02-04T05:28:37.047Z,53.30
2023-02-04T05:31:06.196Z,39.83
2023-02-04T05:33:33.957Z,40.88
2023-02-04T05:36:01.726Z,53.80
2023-02-04T05:38:29.408Z,35.25
2023-02-04T05:40:57.085Z,45.33
2023-02-04T05:43:24.853Z,42.60
2023-02-04T05:45:52.661Z,51.38
2023-02-04T05:48:21.765Z,43.23
2023-02-04T05:50:49.401Z,47.75
2023-02-04T05:53:17.059Z,41.20
2023-02-04T05:55:44.911Z,36.08
2023-02-04T05:58:12.660Z,45.85
2023-02-04T06:00:40.434Z,40.03
2023-02-04T06:03:08.182Z,35.67
2023-02-04T06:05:37.344Z,40.33
2023-02-04T06:08:05.450Z,38.77
2023-02-04T06:10:33.444Z,51.30
2023-02-04T06:13:01.235Z,46.50
2023-02-04T06:15:28.892Z,51.10
2023-02-04T06:17:56.595Z,38.85
2023-02-04T06:20:24.267Z,35.15
2023-02-04T06:22:54.483Z,39.83
2023-02-04T06:25:22.408Z,55.35
2023-02-04T06:27:50.557Z,44.70
2023-02-04T06:30:19.716Z,45.00
2023-02-04T06:32:47.392Z,38.92
2023-02-04T06:35:16.539Z,34.58
2023-02-04T06:37:44.460Z,45.63
2023-02-04T06:40:14.117Z,46.70
2023-02-04T06:42:41.890Z,34.53
2023-02-04T06:45:09.978Z,36.28
2023-02-04T06:47:37.680Z,52.00
2023-02-04T06:50:05.535Z,44.50
2023-02-04T06:52:33.223Z,31.25
2023-02-04T06:55:00.883Z,34.35
2023-02-04T06:57:29.953Z,51.45
2023-02-04T06:59:57.715Z,41.78
2023-02-04T07:02:25.390Z,40.05
2023-02-04T07:04:53.090Z,29.83
2023-02-04T07:07:20.780Z,38.92
2023-02-04T07:09:48.468Z,37.88
2023-02-04T07:12:16.481Z,42.22
2023-02-04T07:14:45.625Z,44.75
2023-02-04T07:17:13.311Z,33.63
2023-02-04T07:19:41.076Z,32.13
2023-02-04T07:22:08.766Z,34.10
2023-02-04T07:24:36.491Z,33.47
2023-02-04T07:27:04.374Z,35.58
2023-02-04T07:29:32.029Z,38.78
2023-02-04T07:32:01.267Z,44.28
2023-02-04T07:34:29.031Z,29.88
2023-02-04T07:36:56.768Z,46.53
2023-02-04T07:39:24.516Z,41.92
2023-02-04T07:41:52.190Z,43.40
2023-02-04T07:44:19.858Z,33.60
2023-02-04T07:46:47.543Z,43.22
2023-02-04T07:49:16.624Z,28.52
2023-02-04T07:51:44.289Z,42.25
2023-02-04T07:54:12.145Z,39.80
2023-02-04T07:56:39.843Z,44.80
2023-02-04T07:59:07.575Z,32.83
2023-02-04T08:01:35.414Z,39.65
2023-02-04T08:04:03.361Z,38.13
2023-02-04T08:06:32.470Z,35.60
2023-02-04T08:09:00.175Z,39.45
2023-02-04T08:11:28.162Z,38.28
2023-02-04T08:13:55.846Z,43.03
2023-02-04T08:16:23.571Z,35.97
2023-02-04T08:18:51.283Z,36.60
2023-02-04T08:21:19.583Z,41.05
2023-02-04T08:23:48.725Z,39.13
2023-02-04T08:26:16.449Z,23.42
2023-02-04T08:28:44.187Z,37.63
2023-02-04T08:31:12.874Z,28.77
2023-02-04T08:33:41.007Z,25.98
2023-02-04T08:36:08.917Z,24.87
2023-02-04T08:38:36.679Z,17.83
2023-02-04T08:41:06.022Z,15.73
2023-02-04T08:43:33.717Z,17.85
2023-02-04T08:46:01.431Z,20.55
2023-02-04T08:48:29.345Z,12.93
2023-02-04T08:50:57.065Z,15.82
2023-02-04T08:53:24.746Z,15.65
2023-02-04T08:55:52.433Z,14.00
2023-02-04T08:58:21.570Z,21.52
2023-02-04T09:00:49.300Z,13.57
2023-02-04T09:03:17.034Z,19.43
2023-02-04T09:05:44.710Z,10.25
2023-02-04T09:08:12.416Z,16.20
2023-02-04T09:10:40.106Z,11.90
2023-02-04T09:13:11.634Z,10.85
2023-02-04T09:15:40.777Z,17.42
2023-02-04T09:18:16.401Z,16.33
2023-02-04T09:20:44.401Z,12.05
2023-02-04T09:23:13.090Z,10.93
2023-02-04T09:25:41.012Z,10.52
2023-02-04T09:28:10.108Z,8.00
2023-02-04T09:30:38.228Z,12.48
2023-02-04T09:33:07.635Z,13.55
2023-02-04T09:38:06.099Z,11.68
2023-02-04T09:40:36.126Z,12.32
2023-02-04T09:43:04.683Z,10.00
2023-02-04T09:45:35.852Z,14.82
2023-02-04T09:48:04.901Z,11.13
2023-02-04T09:50:34.907Z,11.45
2023-02-04T09:53:05.779Z,7.78
2023-02-04T09:55:35.774Z,10.20
2023-02-04T09:58:03.980Z,9.93
2023-02-04T10:00:32.433Z,11.30
2023-02-04T10:03:23.170Z,12.90
2023-02-04T10:05:52.968Z,9.35
2023-02-04T10:08:29.253Z,13.18
2023-02-04T10:10:58.141Z,19.63
2023-02-04T10:13:31.982Z,11.20
2023-02-04T10:16:00.341Z,12.47
2023-02-04T10:18:30.415Z,9.70
2023-02-04T10:21:09.671Z,14.77
2023-02-04T10:23:37.318Z,13.63
2023-02-04T10:26:05.713Z,13.85
2023-02-04T10:28:36.769Z,12.38
2023-02-04T10:31:05.162Z,13.00
2023-02-04T10:33:33.269Z,19.08
2023-02-04T10:36:02.320Z,17.52
2023-02-04T10:38:30.023Z,14.55
2023-02-04T10:41:04.214Z,19.92
2023-02-04T10:43:32.188Z,18.45
2023-02-04T10:46:02.579Z,15.88
2023-02-04T10:48:31.141Z,19.58
2023-02-04T10:50:59.608Z,21.02
2023-02-04T10:53:46.357Z,17.63
2023-02-04T10:56:17.444Z,13.07
2023-02-04T10:59:05.966Z,16.33
2023-02-04T11:01:34.152Z,14.30
2023-02-04T11:04:01.836Z,11.88
2023-02-04T11:06:29.853Z,18.42
2023-02-04T11:09:00.536Z,20.10
2023-02-04T11:11:28.314Z,19.85
2023-02-04T11:14:02.120Z,15.88
2023-02-04T11:16:32.864Z,13.27
2023-02-04T11:19:02.679Z,19.60
2023-02-04T11:21:42.981Z,15.35
2023-02-04T11:24:25.801Z,13.18
2023-02-04T11:26:54.729Z,16.80
2023-02-04T11:29:34.837Z,24.00
2023-02-04T11:32:05.214Z,14.05
2023-02-04T11:34:46.695Z,16.90
2023-02-04T11:37:20.369Z,10.88
2023-02-04T11:39:50.708Z,12.90
2023-02-04T11:42:21.336Z,14.95
2023-02-04T11:44:53.957Z,17.25
2023-02-04T11:47:22.441Z,19.67
2023-02-04T11:50:14.261Z,15.80
2023-02-04T11:55:47.895Z,11.25
2023-02-04T11:58:16.850Z,14.02
2023-02-04T12:00:45.202Z,14.82
2023-02-04T12:03:24.020Z,10.30
2023-02-04T12:05:54.916Z,18.07
2023-02-04T12:08:33.481Z,15.68
2023-02-04T12:11:07.440Z,13.93
2023-02-04T12:13:37.970Z,19.38
2023-02-04T12:16:07.432Z,19.35
2023-02-04T12:18:36.285Z,18.35
2023-02-04T12:21:05.805Z,12.63
2023-02-04T12:23:33.557Z,11.95
2023-02-04T12:26:01.382Z,14.60
2023-02-04T12:28:30.530Z,8.73
2023-02-04T12:30:58.270Z,13.18
2023-02-04T12:33:26.211Z,14.43
2023-02-04T12:35:54.199Z,15.00
2023-02-04T12:38:22.085Z,14.93
2023-02-04T12:40:49.772Z,16.08
2023-02-04T12:43:17.548Z,15.23
2023-02-04T12:45:49.735Z,11.23
2023-02-04T12:48:17.646Z,16.30
2023-02-04T12:50:45.489Z,8.65
2023-02-04T12:53:13.228Z,12.82
2023-02-04T12:55:40.906Z,12.57
2023-02-04T12:58:08.664Z,12.73
2023-02-04T13:00:36.389Z,19.98
2023-02-04T13:03:05.575Z,12.80
2023-02-04T13:05:34.148Z,10.52
2023-02-04T13:08:01.969Z,11.95
2023-02-04T13:10:29.712Z,12.70
2023-02-04T13:12:57.414Z,13.32
2023-02-04T13:15:25.131Z,12.85
2023-02-04T13:17:53.100Z,13.70
2023-02-04T13:20:22.259Z,16.55
2023-02-04T13:22:49.949Z,14.27
2023-02-04T13:25:17.874Z,12.60
2023-02-04T13:27:45.567Z,13.07
2023-02-04T13:30:15.280Z,11.50
2023-02-04T13:32:43.552Z,15.20
2023-02-04T13:35:11.402Z,15.95
2023-02-04T13:37:40.569Z,12.30
2023-02-04T13:40:09.546Z,10.95
2023-02-04T13:42:37.262Z,12.30
2023-02-04T13:45:07.684Z,7.95
2023-02-04T13:47:48.921Z,12.57
2023-02-04T13:50:17.132Z,14.20
2023-02-04T13:52:46.157Z,17.70
2023-02-04T13:55:13.893Z,12.50
2023-02-04T13:57:41.551Z,11.47
2023-02-04T14:00:10.809Z,12.25
2023-02-04T14:02:38.510Z,11.75
2023-02-04T14:05:07.000Z,8.77
2023-02-04T14:07:35.189Z,11.40
2023-02-04T14:10:04.548Z,13.60
2023-02-04T14:12:32.246Z,12.43
2023-02-04T14:15:00.103Z,12.25
2023-02-04T14:17:27.782Z,16.58
2023-02-04T14:19:55.450Z,12.20
2023-02-04T14:22:23.167Z,11.90
2023-02-04T14:24:50.844Z,13.80
2023-02-04T14:27:19.966Z,14.33
2023-02-04T14:29:47.629Z,13.88
2023-02-04T14:32:15.327Z,16.73
2023-02-04T14:34:42.995Z,13.23
2023-02-04T14:37:10.689Z,15.43
2023-02-04T14:39:38.382Z,12.48
2023-02-04T14:42:06.300Z,12.63
2023-02-04T14:44:35.369Z,14.05
2023-02-04T14:47:03.152Z,13.07
2023-02-04T14:49:31.301Z,12.47
2023-02-04T14:51:58.952Z,12.55
2023-02-04T14:54:26.598Z,14.80
2023-02-04T14:56:54.584Z,10.15
2023-02-04T14:59:22.249Z,17.30
2023-02-04T15:01:51.332Z,11.13
2023-02-04T15:04:19.139Z,17.27
2023-02-04T15:06:47.754Z,15.05
2023-02-04T15:09:15.426Z,15.63
2023-02-04T15:11:43.233Z,9.23
2023-02-04T15:14:10.899Z,11.10
2023-02-04T15:16:38.682Z,13.83
2023-02-04T15:19:07.759Z,8.25
2023-02-04T15:21:35.435Z,12.80
2023-02-04T15:24:03.176Z,11.30
2023-02-04T15:26:30.894Z,10.48
2023-02-04T15:28:58.570Z,11.25
2023-02-04T15:31:27.112Z,13.55
2023-02-04T15:33:54.987Z,14.30
2023-02-04T15:36:24.217Z,9.82
2023-02-04T15:38:51.868Z,13.77
2023-02-04T15:41:19.581Z,11.50
2023-02-04T15:43:48.808Z,8.63
2023-02-04T15:46:16.631Z,7.13
2023-02-04T15:48:44.360Z,7.55
2023-02-04T15:51:12.076Z,13.27
2023-02-04T15:53:41.284Z,11.25
2023-02-04T15:56:09.001Z,6.43
2023-02-04T15:58:36.819Z,7.97
2023-02-04T16:01:05.408Z,9.55
2023-02-04T16:03:33.286Z,12.80
2023-02-04T16:06:00.982Z,13.10
2023-02-04T16:08:28.656Z,7.80
2023-02-04T16:10:57.732Z,9.73
2023-02-04T16:13:25.385Z,12.30
2023-02-04T16:15:53.078Z,6.72
2023-02-04T16:18:20.837Z,9.32
2023-02-04T16:20:48.514Z,10.32
2023-02-04T16:23:16.204Z,11.80
2023-02-04T16:25:43.922Z,4.30
2023-02-04T16:28:13.405Z,6.90
2023-02-04T16:30:41.156Z,7.85
2023-02-04T16:33:08.870Z,7.28
2023-02-04T16:35:57.624Z,9.45
2023-02-04T16:38:25.386Z,8.25
2023-02-04T16:40:53.076Z,7.75
2023-02-04T16:43:22.314Z,6.82
2023-02-04T16:45:50.021Z,6.28
2023-02-04T16:48:17.979Z,11.50
2023-02-04T16:50:45.708Z,8.90
2023-02-04T16:53:16.055Z,18.83
2023-02-04T16:55:43.971Z,6.38
2023-02-04T16:58:11.832Z,7.82
2023-02-04T17:00:42.172Z,12.52
2023-02-04T17:03:10.086Z,9.80
2023-02-04T17:05:37.917Z,9.13
2023-02-04T17:08:05.830Z,10.75
2023-02-04T17:10:51.385Z,11.45
2023-02-04T17:13:19.154Z,7.43
2023-02-04T17:15:48.307Z,12.98
2023-02-04T17:18:16.087Z,10.93
2023-02-04T17:20:44.027Z,9.55
2023-02-04T17:23:11.699Z,10.50
2023-02-04T17:25:39.359Z,10.55
2023-02-04T17:28:07.109Z,11.80
2023-02-04T17:30:34.820Z,17.15
2023-02-04T17:33:03.976Z,14.15
2023-02-04T17:35:32.059Z,20.30
2023-02-04T17:38:01.275Z,8.63
2023-02-04T17:40:28.977Z,12.50
2023-02-04T17:42:56.868Z,17.08
2023-02-04T17:45:24.555Z,9.68
2023-02-04T17:47:52.221Z,9.32
2023-02-04T17:50:21.503Z,17.95
2023-02-04T17:52:49.991Z,13.60
2023-02-04T17:55:22.402Z,15.80
2023-02-04T17:57:50.149Z,16.33
2023-02-04T18:00:19.202Z,21.15
2023-02-04T18:02:59.159Z,16.27
2023-02-04T18:05:30.801Z,16.83
2023-02-04T18:08:01.588Z,15.95
2023-02-04T18:10:33.052Z,10.40
2023-02-04T18:13:02.395Z,11.63
2023-02-04T18:15:32.417Z,17.80
2023-02-04T18:18:09.909Z,12.18
2023-02-04T18:20:39.011Z,18.13
2023-02-04T18:23:13.742Z,14.43
2023-02-04T18:25:41.504Z,16.02
2023-02-04T18:28:15.284Z,14.15
2023-02-04T18:30:43.252Z,11.63
2023-02-04T18:33:16.891Z,14.73
2023-02-04T18:35:48.243Z,9.45
2023-02-04T18:38:22.973Z,14.05
2023-02-04T18:40:51.641Z,15.40
2023-02-04T18:43:25.583Z,12.45
2023-02-04T18:45:53.743Z,12.83
2023-02-04T18:48:50.620Z,12.67
2023-02-04T18:51:27.062Z,12.05
2023-02-04T18:53:59.548Z,13.85
2023-02-04T18:56:27.711Z,10.25
2023-02-04T18:58:55.431Z,10.90
2023-02-04T19:01:27.571Z,12.20
2023-02-04T19:03:57.556Z,14.30
2023-02-04T19:06:28.997Z,11.35
2023-02-04T19:09:05.234Z,9.27
2023-02-04T19:11:35.853Z,12.27
2023-02-04T19:14:04.465Z,12.80
2023-02-04T19:16:35.514Z,12.15
2023-02-04T19:19:04.442Z,17.13
2023-02-04T19:21:35.884Z,14.23
2023-02-04T19:24:17.720Z,13.70
2023-02-04T19:26:50.840Z,15.27
2023-02-04T19:29:37.392Z,18.05
2023-02-04T19:32:20.352Z,17.90
2023-02-04T19:34:48.629Z,16.30
2023-02-04T19:37:22.584Z,12.40
2023-02-04T19:39:51.256Z,17.52
2023-02-04T19:42:28.590Z,14.57
2023-02-04T19:44:58.025Z,17.52
2023-02-04T19:47:27.701Z,14.98
2023-02-04T19:50:03.235Z,16.92
2023-02-04T19:52:36.912Z,20.77
2023-02-04T19:58:53.436Z,14.48
2023-02-04T20:01:21.683Z,12.98
2023-02-04T20:03:49.877Z,12.40
2023-02-04T20:06:26.486Z,12.13
2023-02-04T20:09:00.688Z,12.70
2023-02-04T20:11:43.446Z,12.20
2023-02-04T20:14:34.027Z,15.68
2023-02-04T20:17:03.611Z,15.90
2023-02-04T20:19:35.732Z,13.93
2023-02-04T20:22:29.496Z,15.20
2023-02-04T20:25:00.802Z,16.77
2023-02-04T20:27:29.985Z,18.35
2023-02-04T20:30:02.146Z,19.80
2023-02-04T20:32:30.260Z,19.83
2023-02-04T20:35:00.454Z,15.93
2023-02-04T20:37:28.665Z,13.63
2023-02-04T20:39:56.379Z,17.88
2023-02-04T20:42:29.830Z,18.48
2023-02-04T20:45:06.434Z,20.35
2023-02-04T20:47:35.759Z,18.73
2023-02-04T20:50:03.502Z,16.53
2023-02-04T20:53:06.688Z,23.15
2023-02-04T20:55:35.919Z,20.95
2023-02-04T20:58:16.337Z,18.00
2023-02-04T21:00:47.879Z,23.07
2023-02-04T21:03:27.783Z,20.98
2023-02-04T21:06:17.973Z,21.20
2023-02-04T21:08:46.535Z,17.67
2023-02-04T21:11:14.201Z,18.67
2023-02-04T21:13:43.460Z,21.63
2023-02-04T21:16:11.280Z,22.25
2023-02-04T21:18:39.953Z,21.98
2023-02-04T21:21:09.356Z,19.90
2023-02-04T21:23:37.442Z,19.42
2023-02-04T21:26:05.581Z,24.45
2023-02-04T21:28:33.998Z,20.88
2023-02-04T21:31:03.441Z,20.97
2023-02-04T21:33:31.320Z,18.65
2023-02-04T21:35:59.014Z,23.00
2023-02-04T21:38:26.730Z,21.92
2023-02-04T21:40:54.440Z,22.63
2023-02-04T21:43:22.147Z,22.25
2023-02-04T21:45:49.795Z,23.40
2023-02-04T21:48:18.973Z,19.13
2023-02-04T21:50:46.916Z,20.73
2023-02-04T21:53:14.666Z,22.17
2023-02-04T21:55:42.361Z,26.65
2023-02-04T21:58:10.025Z,24.73
2023-02-04T22:00:37.819Z,26.90
2023-02-04T22:03:06.190Z,22.53
2023-02-04T22:05:35.595Z,23.83
2023-02-04T22:08:03.465Z,23.70
2023-02-04T22:10:31.328Z,20.50
2023-02-04T22:13:12.881Z,23.98
2023-02-04T22:18:41.127Z,21.95
2023-02-04T22:21:10.183Z,22.20
2023-02-04T22:23:37.873Z,21.83
2023-02-04T22:26:07.814Z,20.10
2023-02-04T22:28:35.468Z,24.30
2023-02-04T22:31:03.233Z,22.88
2023-02-04T22:33:30.961Z,20.23
2023-02-04T22:35:58.667Z,23.30
2023-02-04T22:38:27.876Z,20.23
2023-02-04T22:40:55.515Z,21.58
2023-02-04T22:43:23.272Z,22.87
2023-02-04T22:45:50.975Z,22.90
2023-02-04T22:48:18.660Z,22.92
2023-02-04T22:50:46.345Z,17.73
2023-02-04T22:53:14.027Z,19.73
2023-02-04T22:55:43.105Z,19.77
2023-02-04T22:58:10.839Z,18.40
2023-02-04T23:00:38.600Z,19.80
2023-02-04T23:03:06.384Z,18.90
2023-02-04T23:05:53.719Z,23.73
2023-02-04T23:08:21.517Z,17.80
2023-02-04T23:10:50.618Z,19.70
2023-02-04T23:13:18.567Z,22.55
2023-02-04T23:15:46.308Z,18.48
2023-02-04T23:18:14.109Z,16.63
2023-02-04T23:20:42.382Z,19.55
2023-02-04T23:23:14.812Z,16.23
2023-02-04T23:25:42.537Z,16.13
2023-02-04T23:28:11.663Z,19.85
2023-02-04T23:30:39.408Z,18.83
2023-02-04T23:33:07.294Z,17.83
2023-02-04T23:35:35.502Z,18.55
2023-02-04T23:38:03.785Z,18.23
2023-02-04T23:40:31.471Z,18.23
2023-02-04T23:42:59.137Z,17.40
2023-02-04T23:45:28.357Z,14.60
2023-02-04T23:47:56.116Z,21.88
2023-02-04T23:50:23.987Z,18.55
2023-02-04T23:52:51.695Z,22.33
2023-02-04T23:55:19.479Z,19.50
2023-02-04T23:57:49.572Z,17.17
